TPC6 KPBG-KBGR
Flight info
| Callsign | TPC6 |
|---|---|
| Flight time | 1h 18m |
| Altitude | 7000 |
| Route | BML |
| Aircraft | C208/L-SDFGRY/C |
Departure
| Time | 2026-04-26 12:19 |
|---|---|
| Airport | Plattsburgh International Airport (KPBG) |
Arrival
| Time | 2026-04-26 13:38 |
|---|---|
| Airport | Bangor International Airport (KBGR) |
| Time | Latitude | Longitude | Altitude | Speed | Heading |
|---|---|---|---|---|---|
| 2026-04-26 11:51 | 44.65057 | -73.46035 | 200 ft | 0 kts | 155° |
| 2026-04-26 12:12 | 44.65025 | -73.46044 | 199 ft | 11 kts | 220° |
| 2026-04-26 12:12 | 44.65003 | -73.46118 | 199 ft | 13 kts | 270° |
| 2026-04-26 12:13 | 44.65068 | -73.46241 | 201 ft | 9 kts | 323° |
| 2026-04-26 12:13 | 44.65134 | -73.46298 | 207 ft | 15 kts | 326° |
| 2026-04-26 12:13 | 44.65230 | -73.46409 | 206 ft | 22 kts | 317° |
| 2026-04-26 12:13 | 44.65355 | -73.46523 | 210 ft | 22 kts | 336° |
| 2026-04-26 12:14 | 44.65496 | -73.46604 | 214 ft | 22 kts | 338° |
| 2026-04-26 12:14 | 44.65641 | -73.46691 | 216 ft | 23 kts | 340° |
| 2026-04-26 12:14 | 44.65785 | -73.46775 | 219 ft | 21 kts | 338° |
| 2026-04-26 12:14 | 44.65914 | -73.46849 | 223 ft | 20 kts | 337° |
| 2026-04-26 12:15 | 44.66046 | -73.46926 | 226 ft | 21 kts | 336° |
| 2026-04-26 12:15 | 44.66180 | -73.47004 | 229 ft | 21 kts | 337° |
| 2026-04-26 12:15 | 44.66315 | -73.47083 | 234 ft | 21 kts | 337° |
| 2026-04-26 12:15 | 44.66450 | -73.47164 | 236 ft | 21 kts | 337° |
| 2026-04-26 12:16 | 44.66588 | -73.47240 | 239 ft | 21 kts | 337° |
| 2026-04-26 12:16 | 44.66675 | -73.47346 | 241 ft | 17 kts | 269° |
| 2026-04-26 12:16 | 44.66657 | -73.47507 | 242 ft | 11 kts | 212° |
| 2026-04-26 12:16 | 44.66653 | -73.47511 | 242 ft | 0 kts | 204° |
| 2026-04-26 12:18 | 44.66622 | -73.47548 | 243 ft | 11 kts | 225° |
| 2026-04-26 12:18 | 44.66571 | -73.47630 | 242 ft | 13 kts | 227° |
| 2026-04-26 12:18 | 44.66485 | -73.47616 | 240 ft | 18 kts | 158° |
| 2026-04-26 12:19 | 44.66227 | -73.47466 | 232 ft | 67 kts | 158° |
| 2026-04-26 12:19 | 44.65692 | -73.47147 | 362 ft | 91 kts | 154° |
| 2026-04-26 12:19 | 44.65109 | -73.46779 | 627 ft | 96 kts | 154° |
| 2026-04-26 12:19 | 44.64441 | -73.46372 | 861 ft | 109 kts | 156° |
| 2026-04-26 12:20 | 44.63798 | -73.45800 | 1233 ft | 114 kts | 129° |
| 2026-04-26 12:20 | 44.63499 | -73.44784 | 1625 ft | 113 kts | 97° |
| 2026-04-26 12:20 | 44.63388 | -73.43629 | 1930 ft | 124 kts | 94° |
| 2026-04-26 12:20 | 44.63307 | -73.42398 | 2209 ft | 129 kts | 91° |
| 2026-04-26 12:21 | 44.63307 | -73.41126 | 2486 ft | 132 kts | 83° |
| 2026-04-26 12:21 | 44.63329 | -73.39825 | 2761 ft | 134 kts | 87° |
| 2026-04-26 12:21 | 44.63339 | -73.38517 | 3016 ft | 134 kts | 86° |
| 2026-04-26 12:21 | 44.63354 | -73.37210 | 3278 ft | 134 kts | 86° |
| 2026-04-26 12:22 | 44.63369 | -73.35904 | 3536 ft | 134 kts | 86° |
| 2026-04-26 12:22 | 44.63382 | -73.34598 | 3788 ft | 134 kts | 86° |
| 2026-04-26 12:22 | 44.63396 | -73.33284 | 4048 ft | 135 kts | 86° |
| 2026-04-26 12:22 | 44.63411 | -73.31968 | 4357 ft | 137 kts | 88° |
| 2026-04-26 12:23 | 44.63421 | -73.30620 | 4667 ft | 138 kts | 86° |
| 2026-04-26 12:23 | 44.63431 | -73.29275 | 4977 ft | 136 kts | 87° |
| 2026-04-26 12:23 | 44.63442 | -73.27968 | 5277 ft | 132 kts | 87° |
| 2026-04-26 12:23 | 44.63459 | -73.26695 | 5586 ft | 134 kts | 87° |
| 2026-04-26 12:24 | 44.63466 | -73.25383 | 5884 ft | 133 kts | 88° |
| 2026-04-26 12:24 | 44.63477 | -73.24077 | 6195 ft | 131 kts | 88° |
| 2026-04-26 12:24 | 44.63488 | -73.22830 | 6494 ft | 129 kts | 88° |
| 2026-04-26 12:25 | 44.63510 | -73.20259 | 6985 ft | 133 kts | 88° |
| 2026-04-26 12:25 | 44.63519 | -73.18892 | 7010 ft | 150 kts | 88° |
| 2026-04-26 12:25 | 44.63532 | -73.17360 | 7015 ft | 162 kts | 88° |
| 2026-04-26 12:25 | 44.63551 | -73.15741 | 7013 ft | 169 kts | 88° |
| 2026-04-26 12:26 | 44.63563 | -73.14074 | 7013 ft | 173 kts | 88° |
| 2026-04-26 12:26 | 44.63574 | -73.12378 | 7008 ft | 175 kts | 88° |
| 2026-04-26 12:26 | 44.63586 | -73.10666 | 7011 ft | 176 kts | 88° |
| 2026-04-26 12:26 | 44.63599 | -73.08941 | 7007 ft | 178 kts | 89° |
| 2026-04-26 12:27 | 44.63610 | -73.07206 | 7009 ft | 178 kts | 88° |
| 2026-04-26 12:27 | 44.63622 | -73.05463 | 7005 ft | 178 kts | 88° |
| 2026-04-26 12:27 | 44.63634 | -73.03721 | 7005 ft | 178 kts | 88° |
| 2026-04-26 12:27 | 44.63646 | -73.01982 | 7011 ft | 178 kts | 89° |
| 2026-04-26 12:28 | 44.63656 | -73.00228 | 7002 ft | 180 kts | 89° |
| 2026-04-26 12:28 | 44.63666 | -72.98478 | 7002 ft | 179 kts | 88° |
| 2026-04-26 12:28 | 44.63678 | -72.96733 | 7000 ft | 178 kts | 88° |
| 2026-04-26 12:28 | 44.63688 | -72.94993 | 6999 ft | 178 kts | 89° |
| 2026-04-26 12:29 | 44.63698 | -72.93251 | 7000 ft | 178 kts | 89° |
| 2026-04-26 12:29 | 44.63707 | -72.91509 | 7002 ft | 178 kts | 88° |
| 2026-04-26 12:29 | 44.63725 | -72.88023 | 7003 ft | 178 kts | 88° |
| 2026-04-26 12:30 | 44.63735 | -72.86285 | 7007 ft | 179 kts | 89° |
| 2026-04-26 12:30 | 44.63744 | -72.84542 | 7007 ft | 178 kts | 88° |
| 2026-04-26 12:30 | 44.63752 | -72.82798 | 7010 ft | 179 kts | 88° |
| 2026-04-26 12:31 | 44.63768 | -72.79313 | 7010 ft | 178 kts | 88° |
| 2026-04-26 12:31 | 44.63775 | -72.77574 | 7012 ft | 178 kts | 88° |
| 2026-04-26 12:31 | 44.63783 | -72.75832 | 7011 ft | 179 kts | 88° |
| 2026-04-26 12:31 | 44.63790 | -72.74087 | 7012 ft | 179 kts | 89° |
| 2026-04-26 12:32 | 44.63797 | -72.72360 | 7014 ft | 179 kts | 88° |
| 2026-04-26 12:32 | 44.63807 | -72.70617 | 7016 ft | 179 kts | 89° |
| 2026-04-26 12:32 | 44.63814 | -72.67108 | 7014 ft | 179 kts | 88° |
| 2026-04-26 12:33 | 44.63821 | -72.65357 | 7014 ft | 179 kts | 89° |
| 2026-04-26 12:33 | 44.63826 | -72.63610 | 7014 ft | 179 kts | 89° |
| 2026-04-26 12:33 | 44.63831 | -72.61864 | 7016 ft | 178 kts | 89° |
| 2026-04-26 12:33 | 44.63835 | -72.60706 | 7014 ft | 178 kts | 89° |
| 2026-04-26 12:34 | 44.63841 | -72.58966 | 7014 ft | 178 kts | 89° |
| 2026-04-26 12:34 | 44.63844 | -72.57228 | 7013 ft | 178 kts | 89° |
| 2026-04-26 12:34 | 44.63848 | -72.55494 | 7013 ft | 178 kts | 89° |
| 2026-04-26 12:34 | 44.63851 | -72.53762 | 7013 ft | 177 kts | 89° |
| 2026-04-26 12:35 | 44.63856 | -72.52030 | 7011 ft | 177 kts | 89° |
| 2026-04-26 12:35 | 44.63859 | -72.50296 | 7013 ft | 177 kts | 89° |
| 2026-04-26 12:35 | 44.63862 | -72.48565 | 7010 ft | 177 kts | 89° |
| 2026-04-26 12:35 | 44.63865 | -72.46833 | 7009 ft | 177 kts | 89° |
| 2026-04-26 12:36 | 44.63868 | -72.45101 | 7009 ft | 178 kts | 89° |
| 2026-04-26 12:36 | 44.63871 | -72.43364 | 7009 ft | 178 kts | 89° |
| 2026-04-26 12:36 | 44.63873 | -72.41626 | 7008 ft | 178 kts | 89° |
| 2026-04-26 12:36 | 44.63874 | -72.39888 | 7009 ft | 178 kts | 89° |
| 2026-04-26 12:37 | 44.63876 | -72.38151 | 7006 ft | 178 kts | 89° |
| 2026-04-26 12:37 | 44.63877 | -72.36418 | 7008 ft | 178 kts | 89° |
| 2026-04-26 12:37 | 44.63878 | -72.34682 | 7003 ft | 178 kts | 89° |
| 2026-04-26 12:37 | 44.63877 | -72.32969 | 7005 ft | 178 kts | 89° |
| 2026-04-26 12:38 | 44.63880 | -72.31212 | 6999 ft | 178 kts | 89° |
| 2026-04-26 12:38 | 44.63881 | -72.29478 | 6998 ft | 178 kts | 89° |
| 2026-04-26 12:38 | 44.63880 | -72.27764 | 7001 ft | 178 kts | 89° |
| 2026-04-26 12:38 | 44.63880 | -72.26004 | 7005 ft | 178 kts | 89° |
| 2026-04-26 12:39 | 44.63879 | -72.24271 | 7005 ft | 178 kts | 89° |
| 2026-04-26 12:39 | 44.63878 | -72.22559 | 7003 ft | 178 kts | 89° |
| 2026-04-26 12:39 | 44.63877 | -72.20827 | 7002 ft | 177 kts | 89° |
| 2026-04-26 12:39 | 44.63875 | -72.19093 | 7001 ft | 178 kts | 89° |
| 2026-04-26 12:40 | 44.63875 | -72.17355 | 7004 ft | 178 kts | 89° |
| 2026-04-26 12:40 | 44.63873 | -72.15622 | 7004 ft | 178 kts | 89° |
| 2026-04-26 12:40 | 44.63871 | -72.13889 | 7001 ft | 177 kts | 89° |
| 2026-04-26 12:40 | 44.63869 | -72.12153 | 7009 ft | 178 kts | 89° |
| 2026-04-26 12:41 | 44.63866 | -72.10419 | 7009 ft | 178 kts | 89° |
| 2026-04-26 12:41 | 44.63863 | -72.08686 | 7008 ft | 178 kts | 89° |
| 2026-04-26 12:41 | 44.63859 | -72.06949 | 7007 ft | 178 kts | 89° |
| 2026-04-26 12:41 | 44.63856 | -72.05208 | 7007 ft | 178 kts | 89° |
| 2026-04-26 12:42 | 44.63853 | -72.03476 | 7009 ft | 177 kts | 89° |
| 2026-04-26 12:42 | 44.63849 | -72.01741 | 7012 ft | 178 kts | 89° |
| 2026-04-26 12:42 | 44.63845 | -71.99990 | 7002 ft | 181 kts | 89° |
| 2026-04-26 12:42 | 44.63840 | -71.98230 | 7014 ft | 181 kts | 89° |
| 2026-04-26 12:43 | 44.63837 | -71.96455 | 7010 ft | 182 kts | 88° |
| 2026-04-26 12:43 | 44.63829 | -71.94687 | 7002 ft | 180 kts | 89° |
| 2026-04-26 12:43 | 44.63823 | -71.92934 | 7007 ft | 180 kts | 88° |
| 2026-04-26 12:43 | 44.63822 | -71.91172 | 7004 ft | 182 kts | 89° |
| 2026-04-26 12:44 | 44.63813 | -71.89408 | 7004 ft | 181 kts | 89° |
| 2026-04-26 12:44 | 44.63807 | -71.87652 | 7000 ft | 179 kts | 89° |
| 2026-04-26 12:44 | 44.63800 | -71.85899 | 6998 ft | 179 kts | 89° |
| 2026-04-26 12:44 | 44.63789 | -71.84147 | 7008 ft | 180 kts | 89° |
| 2026-04-26 12:45 | 44.63788 | -71.82377 | 7008 ft | 182 kts | 89° |
| 2026-04-26 12:45 | 44.63780 | -71.80609 | 7016 ft | 180 kts | 89° |
| 2026-04-26 12:45 | 44.63774 | -71.78854 | 7012 ft | 180 kts | 89° |
| 2026-04-26 12:45 | 44.63766 | -71.77091 | 7002 ft | 180 kts | 89° |
| 2026-04-26 12:46 | 44.63758 | -71.75340 | 6996 ft | 179 kts | 89° |
| 2026-04-26 12:46 | 44.63749 | -71.73595 | 6994 ft | 180 kts | 89° |
| 2026-04-26 12:46 | 44.63740 | -71.71842 | 6994 ft | 180 kts | 89° |
| 2026-04-26 12:46 | 44.63728 | -71.70088 | 6999 ft | 180 kts | 89° |
| 2026-04-26 12:47 | 44.63721 | -71.68337 | 6999 ft | 180 kts | 88° |
| 2026-04-26 12:47 | 44.63716 | -71.67175 | 6994 ft | 179 kts | 89° |
| 2026-04-26 12:47 | 44.63704 | -71.64858 | 6993 ft | 179 kts | 89° |
| 2026-04-26 12:47 | 44.63695 | -71.63679 | 6984 ft | 179 kts | 89° |
| 2026-04-26 12:48 | 44.63682 | -71.61364 | 6986 ft | 179 kts | 89° |
| 2026-04-26 12:48 | 44.63672 | -71.59617 | 6980 ft | 179 kts | 89° |
| 2026-04-26 12:48 | 44.63662 | -71.57870 | 6986 ft | 180 kts | 89° |
| 2026-04-26 12:48 | 44.63656 | -71.56680 | 6983 ft | 181 kts | 89° |
| 2026-04-26 12:49 | 44.63644 | -71.54918 | 6982 ft | 181 kts | 89° |
| 2026-04-26 12:49 | 44.63630 | -71.53149 | 6987 ft | 180 kts | 89° |
| 2026-04-26 12:49 | 44.63619 | -71.51396 | 6983 ft | 179 kts | 89° |
| 2026-04-26 12:49 | 44.63598 | -71.49647 | 6982 ft | 179 kts | 89° |
| 2026-04-26 12:50 | 44.63598 | -71.47905 | 6980 ft | 178 kts | 88° |
| 2026-04-26 12:50 | 44.63585 | -71.46157 | 6987 ft | 180 kts | 89° |
| 2026-04-26 12:50 | 44.63571 | -71.44398 | 6986 ft | 180 kts | 89° |
| 2026-04-26 12:50 | 44.63559 | -71.42643 | 6992 ft | 180 kts | 89° |
| 2026-04-26 12:51 | 44.63547 | -71.40875 | 6985 ft | 181 kts | 89° |
| 2026-04-26 12:51 | 44.63529 | -71.39139 | 6995 ft | 181 kts | 89° |
| 2026-04-26 12:51 | 44.63518 | -71.37362 | 6989 ft | 182 kts | 89° |
| 2026-04-26 12:51 | 44.63500 | -71.35592 | 6988 ft | 181 kts | 89° |
| 2026-04-26 12:52 | 44.63489 | -71.33832 | 6988 ft | 181 kts | 89° |
| 2026-04-26 12:52 | 44.63474 | -71.32064 | 6988 ft | 181 kts | 89° |
| 2026-04-26 12:52 | 44.63460 | -71.30308 | 6984 ft | 179 kts | 89° |
| 2026-04-26 12:52 | 44.63444 | -71.28561 | 6981 ft | 179 kts | 89° |
| 2026-04-26 12:53 | 44.63429 | -71.26815 | 6989 ft | 179 kts | 89° |
| 2026-04-26 12:53 | 44.63411 | -71.25059 | 6979 ft | 180 kts | 89° |
| 2026-04-26 12:53 | 44.63396 | -71.23309 | 6980 ft | 179 kts | 89° |
| 2026-04-26 12:53 | 44.63381 | -71.21562 | 6983 ft | 179 kts | 89° |
| 2026-04-26 12:54 | 44.63363 | -71.19819 | 6978 ft | 179 kts | 89° |
| 2026-04-26 12:54 | 44.63382 | -71.18077 | 6983 ft | 179 kts | 82° |
| 2026-04-26 12:54 | 44.63541 | -71.16349 | 6982 ft | 178 kts | 81° |
| 2026-04-26 12:54 | 44.63692 | -71.14623 | 6984 ft | 179 kts | 82° |
| 2026-04-26 12:55 | 44.63835 | -71.12883 | 6984 ft | 179 kts | 82° |
| 2026-04-26 12:55 | 44.63981 | -71.11142 | 6987 ft | 179 kts | 82° |
| 2026-04-26 12:55 | 44.64128 | -71.09407 | 6982 ft | 179 kts | 82° |
| 2026-04-26 12:55 | 44.64272 | -71.07668 | 6982 ft | 179 kts | 82° |
| 2026-04-26 12:56 | 44.64413 | -71.05932 | 6984 ft | 179 kts | 82° |
| 2026-04-26 12:56 | 44.64557 | -71.04201 | 6983 ft | 178 kts | 82° |
| 2026-04-26 12:56 | 44.64702 | -71.02472 | 6985 ft | 178 kts | 82° |
| 2026-04-26 12:56 | 44.64846 | -71.00743 | 6985 ft | 178 kts | 82° |
| 2026-04-26 12:57 | 44.64984 | -70.99034 | 6988 ft | 179 kts | 82° |
| 2026-04-26 12:57 | 44.65125 | -70.97295 | 6982 ft | 180 kts | 82° |
| 2026-04-26 12:57 | 44.65273 | -70.95553 | 6983 ft | 179 kts | 82° |
| 2026-04-26 12:58 | 44.65557 | -70.92100 | 6982 ft | 177 kts | 82° |
| 2026-04-26 12:58 | 44.65696 | -70.90382 | 6983 ft | 177 kts | 82° |
| 2026-04-26 12:58 | 44.65839 | -70.88663 | 6985 ft | 179 kts | 82° |
| 2026-04-26 12:58 | 44.65981 | -70.86929 | 6993 ft | 179 kts | 82° |
| 2026-04-26 12:59 | 44.66119 | -70.85193 | 6991 ft | 179 kts | 82° |
| 2026-04-26 12:59 | 44.66260 | -70.83455 | 6997 ft | 180 kts | 82° |
| 2026-04-26 12:59 | 44.66406 | -70.81696 | 6996 ft | 182 kts | 82° |
| 2026-04-26 12:59 | 44.66553 | -70.79916 | 6988 ft | 184 kts | 82° |
| 2026-04-26 13:00 | 44.66688 | -70.78145 | 6986 ft | 182 kts | 82° |
| 2026-04-26 13:00 | 44.66827 | -70.76387 | 6991 ft | 181 kts | 82° |
| 2026-04-26 13:00 | 44.66972 | -70.74642 | 6990 ft | 179 kts | 82° |
| 2026-04-26 13:00 | 44.67112 | -70.72896 | 6990 ft | 180 kts | 82° |
| 2026-04-26 13:01 | 44.67253 | -70.71151 | 6983 ft | 179 kts | 82° |
| 2026-04-26 13:01 | 44.67391 | -70.69423 | 6989 ft | 178 kts | 82° |
| 2026-04-26 13:01 | 44.67529 | -70.67697 | 6983 ft | 177 kts | 82° |
| 2026-04-26 13:01 | 44.67665 | -70.65973 | 6984 ft | 177 kts | 82° |
| 2026-04-26 13:02 | 44.67802 | -70.64253 | 6978 ft | 177 kts | 82° |
| 2026-04-26 13:02 | 44.67944 | -70.62530 | 6985 ft | 179 kts | 82° |
| 2026-04-26 13:02 | 44.68077 | -70.60792 | 6980 ft | 179 kts | 83° |
| 2026-04-26 13:02 | 44.68211 | -70.59064 | 6983 ft | 177 kts | 82° |
| 2026-04-26 13:03 | 44.68347 | -70.57346 | 6982 ft | 177 kts | 82° |
| 2026-04-26 13:03 | 44.68483 | -70.55631 | 6982 ft | 176 kts | 82° |
| 2026-04-26 13:03 | 44.68617 | -70.53938 | 6982 ft | 177 kts | 82° |
| 2026-04-26 13:03 | 44.68750 | -70.52219 | 6988 ft | 177 kts | 82° |
| 2026-04-26 13:04 | 44.68885 | -70.50500 | 6986 ft | 177 kts | 82° |
| 2026-04-26 13:04 | 44.69020 | -70.48780 | 6987 ft | 177 kts | 82° |
| 2026-04-26 13:04 | 44.69154 | -70.47060 | 6993 ft | 177 kts | 82° |
| 2026-04-26 13:04 | 44.69289 | -70.45332 | 6990 ft | 178 kts | 82° |
| 2026-04-26 13:05 | 44.69423 | -70.43612 | 6991 ft | 177 kts | 82° |
| 2026-04-26 13:05 | 44.69556 | -70.41896 | 6993 ft | 176 kts | 83° |
| 2026-04-26 13:05 | 44.69686 | -70.40183 | 6984 ft | 176 kts | 82° |
| 2026-04-26 13:05 | 44.69820 | -70.38473 | 6991 ft | 177 kts | 82° |
| 2026-04-26 13:06 | 44.69953 | -70.36757 | 6988 ft | 176 kts | 83° |
| 2026-04-26 13:06 | 44.70083 | -70.35047 | 6992 ft | 176 kts | 83° |
| 2026-04-26 13:06 | 44.70214 | -70.33337 | 6982 ft | 176 kts | 83° |
| 2026-04-26 13:06 | 44.70346 | -70.31622 | 6983 ft | 177 kts | 83° |
| 2026-04-26 13:07 | 44.70477 | -70.29908 | 6984 ft | 176 kts | 83° |
| 2026-04-26 13:07 | 44.70608 | -70.28193 | 6985 ft | 177 kts | 83° |
| 2026-04-26 13:07 | 44.70736 | -70.26480 | 6984 ft | 176 kts | 83° |
| 2026-04-26 13:07 | 44.70866 | -70.24762 | 6981 ft | 177 kts | 83° |
| 2026-04-26 13:08 | 44.71000 | -70.23051 | 6982 ft | 176 kts | 83° |
| 2026-04-26 13:08 | 44.71128 | -70.21345 | 6987 ft | 176 kts | 83° |
| 2026-04-26 13:08 | 44.71256 | -70.19615 | 6976 ft | 178 kts | 83° |
| 2026-04-26 13:08 | 44.71388 | -70.17887 | 6972 ft | 178 kts | 83° |
| 2026-04-26 13:09 | 44.71517 | -70.16169 | 6975 ft | 176 kts | 83° |
| 2026-04-26 13:09 | 44.71644 | -70.14453 | 6975 ft | 176 kts | 83° |
| 2026-04-26 13:09 | 44.71773 | -70.12758 | 6973 ft | 176 kts | 83° |
| 2026-04-26 13:09 | 44.71901 | -70.11050 | 6974 ft | 175 kts | 83° |
| 2026-04-26 13:10 | 44.72029 | -70.09346 | 6976 ft | 175 kts | 83° |
| 2026-04-26 13:10 | 44.72156 | -70.07640 | 6974 ft | 175 kts | 84° |
| 2026-04-26 13:10 | 44.72280 | -70.05938 | 6972 ft | 175 kts | 84° |
| 2026-04-26 13:10 | 44.72406 | -70.04235 | 6973 ft | 175 kts | 84° |
| 2026-04-26 13:11 | 44.72534 | -70.02531 | 6975 ft | 176 kts | 84° |
| 2026-04-26 13:11 | 44.72660 | -70.00820 | 6975 ft | 175 kts | 84° |
| 2026-04-26 13:11 | 44.72785 | -69.99117 | 6973 ft | 175 kts | 84° |
| 2026-04-26 13:11 | 44.72910 | -69.97419 | 6981 ft | 175 kts | 84° |
| 2026-04-26 13:12 | 44.73033 | -69.95705 | 6983 ft | 178 kts | 84° |
| 2026-04-26 13:12 | 44.73157 | -69.93975 | 6976 ft | 178 kts | 84° |
| 2026-04-26 13:12 | 44.73289 | -69.92255 | 6974 ft | 176 kts | 84° |
| 2026-04-26 13:12 | 44.73419 | -69.90550 | 6975 ft | 175 kts | 84° |
| 2026-04-26 13:13 | 44.73538 | -69.88850 | 6974 ft | 175 kts | 84° |
| 2026-04-26 13:13 | 44.73658 | -69.87154 | 6973 ft | 174 kts | 84° |
| 2026-04-26 13:13 | 44.73780 | -69.85460 | 6973 ft | 174 kts | 84° |
| 2026-04-26 13:13 | 44.73904 | -69.83764 | 6976 ft | 175 kts | 84° |
| 2026-04-26 13:14 | 44.74024 | -69.82062 | 6972 ft | 175 kts | 84° |
| 2026-04-26 13:14 | 44.74151 | -69.80365 | 6973 ft | 174 kts | 84° |
| 2026-04-26 13:14 | 44.74275 | -69.78665 | 6973 ft | 176 kts | 84° |
| 2026-04-26 13:14 | 44.74394 | -69.76962 | 6974 ft | 175 kts | 84° |
| 2026-04-26 13:15 | 44.74518 | -69.75250 | 6973 ft | 177 kts | 84° |
| 2026-04-26 13:15 | 44.74640 | -69.73533 | 6980 ft | 177 kts | 84° |
| 2026-04-26 13:15 | 44.74759 | -69.71811 | 6978 ft | 176 kts | 84° |
| 2026-04-26 13:15 | 44.74846 | -69.70672 | 6979 ft | 177 kts | 84° |
| 2026-04-26 13:16 | 44.75006 | -69.68374 | 6975 ft | 176 kts | 85° |
| 2026-04-26 13:16 | 44.75124 | -69.66667 | 6977 ft | 175 kts | 84° |
| 2026-04-26 13:16 | 44.75246 | -69.64967 | 6975 ft | 174 kts | 84° |
| 2026-04-26 13:16 | 44.75362 | -69.63273 | 6974 ft | 174 kts | 84° |
| 2026-04-26 13:17 | 44.75608 | -69.59871 | 6974 ft | 175 kts | 84° |
| 2026-04-26 13:17 | 44.75728 | -69.58173 | 6974 ft | 174 kts | 85° |
| 2026-04-26 13:18 | 44.75961 | -69.54781 | 6973 ft | 174 kts | 85° |
| 2026-04-26 13:18 | 44.76077 | -69.53092 | 6973 ft | 173 kts | 85° |
| 2026-04-26 13:18 | 44.76313 | -69.49709 | 6987 ft | 174 kts | 85° |
| 2026-04-26 13:19 | 44.76428 | -69.48014 | 6973 ft | 174 kts | 85° |
| 2026-04-26 13:19 | 44.76546 | -69.46350 | 6981 ft | 173 kts | 85° |
| 2026-04-26 13:19 | 44.76662 | -69.44662 | 6983 ft | 174 kts | 84° |
| 2026-04-26 13:19 | 44.76778 | -69.42969 | 6977 ft | 174 kts | 85° |
| 2026-04-26 13:20 | 44.76893 | -69.41278 | 6984 ft | 174 kts | 85° |
| 2026-04-26 13:20 | 44.77011 | -69.39564 | 6983 ft | 177 kts | 85° |
| 2026-04-26 13:20 | 44.77125 | -69.37842 | 6972 ft | 176 kts | 85° |
| 2026-04-26 13:20 | 44.77239 | -69.36128 | 6980 ft | 176 kts | 85° |
| 2026-04-26 13:21 | 44.77360 | -69.34422 | 6977 ft | 175 kts | 85° |
| 2026-04-26 13:21 | 44.77436 | -69.33268 | 6975 ft | 175 kts | 85° |
| 2026-04-26 13:21 | 44.77593 | -69.31026 | 6977 ft | 174 kts | 85° |
| 2026-04-26 13:21 | 44.77705 | -69.29336 | 6976 ft | 173 kts | 85° |
| 2026-04-26 13:22 | 44.77818 | -69.27652 | 6974 ft | 173 kts | 85° |
| 2026-04-26 13:22 | 44.77930 | -69.25971 | 6977 ft | 172 kts | 85° |
| 2026-04-26 13:22 | 44.78045 | -69.24291 | 6976 ft | 172 kts | 85° |
| 2026-04-26 13:22 | 44.78167 | -69.22614 | 6978 ft | 173 kts | 85° |
| 2026-04-26 13:23 | 44.78286 | -69.20929 | 6978 ft | 173 kts | 85° |
| 2026-04-26 13:23 | 44.78410 | -69.19247 | 6979 ft | 173 kts | 85° |
| 2026-04-26 13:23 | 44.78534 | -69.17568 | 6979 ft | 172 kts | 85° |
| 2026-04-26 13:23 | 44.78659 | -69.15891 | 6978 ft | 172 kts | 84° |
| 2026-04-26 13:24 | 44.78781 | -69.14210 | 6978 ft | 173 kts | 85° |
| 2026-04-26 13:24 | 44.78900 | -69.12530 | 6984 ft | 172 kts | 87° |
| 2026-04-26 13:24 | 44.78572 | -69.10942 | 6981 ft | 174 kts | 125° |
| 2026-04-26 13:24 | 44.77723 | -69.09701 | 6929 ft | 179 kts | 135° |
| 2026-04-26 13:25 | 44.76813 | -69.08485 | 6802 ft | 182 kts | 135° |
| 2026-04-26 13:25 | 44.75883 | -69.07267 | 6683 ft | 183 kts | 136° |
| 2026-04-26 13:25 | 44.74949 | -69.06049 | 6564 ft | 184 kts | 136° |
| 2026-04-26 13:25 | 44.74005 | -69.04819 | 6436 ft | 185 kts | 135° |
| 2026-04-26 13:26 | 44.73063 | -69.03591 | 6301 ft | 185 kts | 136° |
| 2026-04-26 13:26 | 44.72124 | -69.02374 | 6170 ft | 179 kts | 136° |
| 2026-04-26 13:26 | 44.71226 | -69.01215 | 6030 ft | 172 kts | 135° |
| 2026-04-26 13:26 | 44.70350 | -69.00096 | 5890 ft | 168 kts | 136° |
| 2026-04-26 13:27 | 44.69485 | -68.98990 | 5755 ft | 168 kts | 136° |
| 2026-04-26 13:27 | 44.68618 | -68.97881 | 5591 ft | 169 kts | 136° |
| 2026-04-26 13:27 | 44.67743 | -68.96764 | 5432 ft | 170 kts | 135° |
| 2026-04-26 13:27 | 44.66869 | -68.95653 | 5291 ft | 170 kts | 135° |
| 2026-04-26 13:28 | 44.65984 | -68.94533 | 5120 ft | 171 kts | 136° |
| 2026-04-26 13:28 | 44.65106 | -68.93416 | 4947 ft | 173 kts | 136° |
| 2026-04-26 13:28 | 44.64216 | -68.92276 | 4766 ft | 174 kts | 136° |
| 2026-04-26 13:28 | 44.63462 | -68.90968 | 4562 ft | 172 kts | 109° |
| 2026-04-26 13:29 | 44.63469 | -68.89356 | 4365 ft | 167 kts | 66° |
| 2026-04-26 13:29 | 44.63898 | -68.88435 | 4256 ft | 169 kts | 50° |
| 2026-04-26 13:29 | 44.64875 | -68.86711 | 4013 ft | 169 kts | 50° |
| 2026-04-26 13:29 | 44.65624 | -68.85459 | 3819 ft | 165 kts | 49° |
| 2026-04-26 13:30 | 44.66315 | -68.84258 | 3602 ft | 153 kts | 50° |
| 2026-04-26 13:30 | 44.66819 | -68.82970 | 3400 ft | 153 kts | 76° |
| 2026-04-26 13:30 | 44.66921 | -68.81487 | 3189 ft | 152 kts | 83° |
| 2026-04-26 13:30 | 44.67043 | -68.80018 | 2986 ft | 153 kts | 77° |
| 2026-04-26 13:31 | 44.67471 | -68.78678 | 2754 ft | 149 kts | 52° |
| 2026-04-26 13:31 | 44.68087 | -68.77525 | 2556 ft | 147 kts | 52° |
| 2026-04-26 13:31 | 44.68692 | -68.76380 | 2400 ft | 147 kts | 52° |
| 2026-04-26 13:31 | 44.69305 | -68.75248 | 2311 ft | 141 kts | 51° |
| 2026-04-26 13:32 | 44.69888 | -68.74164 | 2197 ft | 139 kts | 52° |
| 2026-04-26 13:32 | 44.70458 | -68.73093 | 2058 ft | 135 kts | 52° |
| 2026-04-26 13:32 | 44.71033 | -68.72102 | 1991 ft | 124 kts | 49° |
| 2026-04-26 13:32 | 44.71626 | -68.71301 | 1982 ft | 114 kts | 24° |
| 2026-04-26 13:33 | 44.72376 | -68.71052 | 1988 ft | 109 kts | 8° |
| 2026-04-26 13:33 | 44.73031 | -68.71479 | 1987 ft | 112 kts | 310° |
| 2026-04-26 13:33 | 44.73508 | -68.72284 | 1970 ft | 105 kts | 317° |
| 2026-04-26 13:33 | 44.74012 | -68.73067 | 1838 ft | 113 kts | 316° |
| 2026-04-26 13:34 | 44.74532 | -68.73847 | 1689 ft | 105 kts | 318° |
| 2026-04-26 13:34 | 44.75031 | -68.74571 | 1535 ft | 101 kts | 318° |
| 2026-04-26 13:34 | 44.75522 | -68.75272 | 1399 ft | 98 kts | 319° |
| 2026-04-26 13:34 | 44.75677 | -68.75492 | 1353 ft | 97 kts | 318° |
| 2026-04-26 13:35 | 44.76448 | -68.76608 | 1132 ft | 90 kts | 319° |
| 2026-04-26 13:35 | 44.76875 | -68.77225 | 1015 ft | 87 kts | 317° |
| 2026-04-26 13:35 | 44.77277 | -68.77807 | 893 ft | 79 kts | 315° |
| 2026-04-26 13:35 | 44.77665 | -68.78370 | 775 ft | 80 kts | 319° |
| 2026-04-26 13:36 | 44.78046 | -68.78917 | 673 ft | 78 kts | 318° |
| 2026-04-26 13:36 | 44.78420 | -68.79459 | 572 ft | 76 kts | 315° |
| 2026-04-26 13:36 | 44.78661 | -68.79817 | 504 ft | 76 kts | 316° |
| 2026-04-26 13:36 | 44.79148 | -68.80514 | 371 ft | 76 kts | 316° |
| 2026-04-26 13:37 | 44.79395 | -68.80874 | 301 ft | 76 kts | 317° |
| 2026-04-26 13:37 | 44.79758 | -68.81394 | 202 ft | 73 kts | 317° |
| 2026-04-26 13:37 | 44.80176 | -68.81989 | 181 ft | 58 kts | 315° |
| 2026-04-26 13:37 | 44.80462 | -68.82404 | 181 ft | 60 kts | 314° |
| 2026-04-26 13:38 | 44.80616 | -68.82577 | 190 ft | 18 kts | 49° |
| 2026-04-26 13:38 | 44.80678 | -68.82479 | 183 ft | 16 kts | 46° |
| 2026-04-26 13:38 | 44.80753 | -68.82376 | 183 ft | 18 kts | 42° |
| 2026-04-26 13:38 | 44.80760 | -68.82234 | 183 ft | 15 kts | 137° |
| 2026-04-26 13:39 | 44.80693 | -68.82137 | 182 ft | 12 kts | 140° |
| 2026-04-26 13:39 | 44.80637 | -68.82063 | 181 ft | 10 kts | 126° |
| 2026-04-26 13:39 | 44.80594 | -68.81994 | 180 ft | 9 kts | 133° |
| 2026-04-26 13:39 | 44.80552 | -68.81931 | 180 ft | 9 kts | 133° |
| 2026-04-26 13:40 | 44.80524 | -68.81855 | 179 ft | 8 kts | 78° |
| 2026-04-26 13:40 | 44.80584 | -68.81770 | 179 ft | 17 kts | 38° |
| 2026-04-26 13:40 | 44.80634 | -68.81656 | 179 ft | 12 kts | 74° |
| 2026-04-26 13:40 | 44.80658 | -68.81550 | 179 ft | 14 kts | 74° |
| 2026-04-26 13:41 | 44.80653 | -68.81445 | 178 ft | 9 kts | 115° |
| 2026-04-26 13:41 | 44.80616 | -68.81386 | 178 ft | 9 kts | 140° |
| 2026-04-26 13:41 | 44.80571 | -68.81335 | 177 ft | 7 kts | 153° |
| 2026-04-26 13:41 | 44.80539 | -68.81352 | 177 ft | 4 kts | 253° |
| 2026-04-26 13:42 | 44.80542 | -68.81375 | 177 ft | 5 kts | 284° |
| 2026-04-26 13:42 | 44.80546 | -68.81391 | 177 ft | 2 kts | 293° |
| 2026-04-26 13:42 | 44.80547 | -68.81394 | 177 ft | 0 kts | 292° |